Time;durP1;ratioP1;P1;durP2;ratioP2;P2;SDS_P1;SDS_P2;PMS_P1;PMS_P2;Temp;Humidity;BMP_temperature;BMP_pressure;BME280_temperature;BME280_humidity;BME280_pressure;Samples;Min_cycle;Max_cycle;Signal;HPM_P1;HPM_P2
2023/10/16 00:00:29;;;;;;;6.82;2.40;;;6.10;99.90;;;;;;5055670;28;20424;-49
2023/10/16 00:02:59;;;;;;;4.63;2.20;;;6.10;99.90;;;;;;5054591;28;20036;-51
2023/10/16 00:05:38;;;;;;;5.28;2.20;;;6.20;99.90;;;;;;5055462;28;20036;-51
2023/10/16 00:08:07;;;;;;;4.97;2.60;;;6.20;99.90;;;;;;5055036;28;20044;-51
2023/10/16 00:10:35;;;;;;;5.47;2.58;;;6.10;99.90;;;;;;5054563;28;20048;-52
2023/10/16 00:13:05;;;;;;;4.32;2.10;;;6.10;99.90;;;;;;5054505;28;20094;-53
2023/10/16 00:15:44;;;;;;;3.63;2.17;;;6.10;99.90;;;;;;5055591;28;20033;-53
2023/10/16 00:18:22;;;;;;;8.02;2.85;;;6.10;99.90;;;;;;5055457;28;20044;-52
2023/10/16 00:20:52;;;;;;;4.75;2.10;;;6.10;99.90;;;;;;5054239;28;20350;-52
2023/10/16 00:23:24;;;;;;;4.97;2.40;;;6.00;99.90;;;;;;5054916;28;20419;-53
2023/10/16 00:25:50;;;;;;;6.55;2.40;;;6.00;99.90;;;;;;5055466;28;20116;-50
2023/10/16 00:28:20;;;;;;;7.70;2.70;;;6.00;99.90;;;;;;5055072;28;20136;-53
2023/10/16 00:30:46;;;;;;;3.85;2.65;;;6.00;99.90;;;;;;5054908;28;20039;-52
2023/10/16 00:33:12;;;;;;;5.50;2.60;;;6.00;99.90;;;;;;5055117;28;20108;-53
2023/10/16 00:35:38;;;;;;;5.90;2.88;;;5.90;99.90;;;;;;5054160;28;20036;-51
2023/10/16 00:38:04;;;;;;;4.75;2.58;;;5.90;99.90;;;;;;5055093;28;20407;-52
2023/10/16 00:40:33;;;;;;;3.63;2.40;;;5.90;99.90;;;;;;5054984;28;20033;-53
2023/10/16 00:43:20;;;;;;;5.15;2.50;;;5.90;99.90;;;;;;5054902;28;20033;-53
2023/10/16 00:46:06;;;;;;;4.70;2.40;;;5.90;99.90;;;;;;5054021;28;20043;-50
2023/10/16 00:48:32;;;;;;;4.45;2.40;;;5.90;99.90;;;;;;5055210;28;20032;-53
2023/10/16 00:51:05;;;;;;;4.38;2.30;;;5.90;99.90;;;;;;5054856;28;20106;-53
2023/10/16 00:53:31;;;;;;;7.80;2.17;;;5.80;99.90;;;;;;5054946;28;20119;-53
2023/10/16 00:55:58;;;;;;;5.95;2.20;;;5.90;99.90;;;;;;5053752;28;20108;-52
2023/10/16 00:58:25;;;;;;;4.18;2.47;;;5.90;99.90;;;;;;5053615;28;20024;-53
2023/10/16 01:00:50;;;;;;;4.20;2.10;;;5.90;99.90;;;;;;5054664;28;20017;-52
2023/10/16 01:03:16;;;;;;;5.13;2.03;;;5.90;99.90;;;;;;5054733;28;20037;-53
2023/10/16 01:05:42;;;;;;;4.57;2.00;;;5.90;99.90;;;;;;5054538;28;20041;-52
2023/10/16 01:08:11;;;;;;;3.50;1.90;;;5.90;99.90;;;;;;5053562;28;20362;-52
2023/10/16 01:10:40;;;;;;;7.15;2.40;;;5.90;99.90;;;;;;5054640;28;20395;-53
2023/10/16 01:13:11;;;;;;;3.73;1.90;;;5.90;99.90;;;;;;5054707;28;20035;-50
2023/10/16 01:15:43;;;;;;;6.00;2.28;;;5.90;99.90;;;;;;5054674;28;20369;-50
2023/10/16 01:18:11;;;;;;;5.95;2.05;;;5.90;99.90;;;;;;5054745;28;20029;-51
2023/10/16 01:20:38;;;;;;;2.97;1.80;;;5.90;99.90;;;;;;5055163;28;20396;-50
2023/10/16 01:23:04;;;;;;;5.03;2.00;;;5.90;99.90;;;;;;5036876;28;20063;-50
2023/10/16 01:25:30;;;;;;;6.18;2.00;;;5.90;99.90;;;;;;5054177;28;20025;-50
2023/10/16 01:27:56;;;;;;;4.15;1.60;;;5.90;99.90;;;;;;5054592;28;20029;-49
2023/10/16 01:30:21;;;;;;;2.63;1.55;;;5.80;99.90;;;;;;5054457;28;20451;-51
2023/10/16 01:32:47;;;;;;;4.03;1.60;;;5.70;99.90;;;;;;5054300;28;20061;-47
2023/10/16 01:35:13;;;;;;;4.82;1.63;;;5.70;99.90;;;;;;5056636;28;20060;-50
2023/10/16 01:37:40;;;;;;;4.38;1.60;;;5.70;99.90;;;;;;5058377;28;20033;-51
2023/10/16 01:43:00;;;;;;;3.83;1.80;;;5.70;99.90;;;;;;5062212;28;20425;-51
2023/10/16 01:45:30;;;;;;;3.22;1.45;;;5.80;99.90;;;;;;5058229;28;20029;-50
2023/10/16 01:47:55;;;;;;;3.63;1.45;;;5.70;99.90;;;;;;5058143;28;20037;-50
2023/10/16 01:50:21;;;;;;;3.53;1.42;;;5.70;99.90;;;;;;5058165;28;20047;-50
2023/10/16 01:52:50;;;;;;;3.85;1.33;;;5.70;99.90;;;;;;5058160;28;20465;-47
2023/10/16 01:55:19;;;;;;;2.60;1.23;;;5.70;99.90;;;;;;5056952;28;20033;-48
2023/10/16 01:57:44;;;;;;;3.58;1.15;;;5.60;99.90;;;;;;5057632;28;20461;-50
2023/10/16 02:00:26;;;;;;;3.88;1.33;;;5.60;99.90;;;;;;5058040;28;20098;-50
2023/10/16 02:02:52;;;;;;;4.40;1.30;;;5.60;99.90;;;;;;5057906;28;20032;-50
2023/10/16 02:05:18;;;;;;;3.00;1.30;;;5.70;99.90;;;;;;5056480;28;20040;-49
2023/10/16 02:07:45;;;;;;;3.42;1.38;;;5.70;99.90;;;;;;5058013;28;20441;-48
2023/10/16 02:10:13;;;;;;;2.85;1.30;;;5.60;99.90;;;;;;5057893;28;20065;-51
2023/10/16 02:12:39;;;;;;;2.42;1.52;;;5.60;99.90;;;;;;5057910;28;20039;-50
2023/10/16 02:15:08;;;;;;;2.35;1.15;;;5.60;99.90;;;;;;5057529;28;20500;-48
2023/10/16 02:17:37;;;;;;;4.18;1.50;;;5.60;99.90;;;;;;5057651;28;20040;-50
2023/10/16 02:20:11;;;;;;;2.13;1.10;;;5.50;99.90;;;;;;5057672;28;20320;-50
2023/10/16 02:22:37;;;;;;;2.47;1.00;;;5.40;99.90;;;;;;5057729;28;20029;-50
2023/10/16 02:25:08;;;;;;;2.95;1.20;;;5.40;99.90;;;;;;5057374;28;20032;-50
2023/10/16 02:27:35;;;;;;;2.30;1.10;;;5.40;99.90;;;;;;5057690;28;20029;-51
2023/10/16 02:30:20;;;;;;;5.63;1.20;;;5.50;99.90;;;;;;5057673;28;20460;-50
2023/10/16 02:32:45;;;;;;;4.53;1.20;;;5.50;99.90;;;;;;5057418;28;20040;-49
2023/10/16 02:35:13;;;;;;;3.88;1.38;;;5.50;99.90;;;;;;5057389;28;20409;-51
2023/10/16 02:37:40;;;;;;;1.73;1.00;;;5.50;99.90;;;;;;5057464;28;20037;-50
2023/10/16 02:40:10;;;;;;;2.10;1.10;;;5.40;99.90;;;;;;5057299;28;20021;-50
2023/10/16 02:42:39;;;;;;;2.67;1.20;;;5.40;99.90;;;;;;5057444;28;20454;-50
2023/10/16 02:45:23;;;;;;;2.00;1.00;;;5.40;99.90;;;;;;5056742;28;20027;-50
2023/10/16 02:47:49;;;;;;;2.28;1.10;;;5.40;99.90;;;;;;5056659;28;20037;-49
2023/10/16 02:50:15;;;;;;;2.28;1.20;;;5.50;99.90;;;;;;5056731;28;20094;-48
2023/10/16 02:52:41;;;;;;;2.97;1.13;;;5.40;99.90;;;;;;5057065;28;20425;-50
2023/10/16 02:55:07;;;;;;;4.40;1.00;;;5.40;99.90;;;;;;5056892;28;20430;-49
2023/10/16 02:57:32;;;;;;;3.85;1.42;;;5.40;99.90;;;;;;5056847;28;20105;-50
2023/10/16 02:59:58;;;;;;;5.68;1.23;;;5.30;99.90;;;;;;5055913;28;20115;-50
2023/10/16 03:02:27;;;;;;;1.85;0.95;;;5.30;99.90;;;;;;5056643;28;20025;-51
2023/10/16 03:04:54;;;;;;;3.40;1.13;;;5.30;99.90;;;;;;5056794;28;20111;-48
2023/10/16 03:07:25;;;;;;;1.92;0.90;;;5.30;99.90;;;;;;5056575;28;20044;-47
2023/10/16 03:09:51;;;;;;;2.75;1.05;;;5.20;99.90;;;;;;5056778;28;20061;-47
2023/10/16 03:12:19;;;;;;;3.80;0.98;;;5.30;99.90;;;;;;5056531;28;20041;-51
2023/10/16 03:14:45;;;;;;;1.80;1.00;;;5.30;99.90;;;;;;5056600;28;20032;-49
2023/10/16 03:20:20;;;;;;;4.32;1.40;;;5.30;99.90;;;;;;5055168;28;20048;-50
2023/10/16 03:22:47;;;;;;;1.70;0.90;;;5.40;99.90;;;;;;5055161;28;20028;-49
2023/10/16 03:25:25;;;;;;;3.22;1.10;;;5.30;99.90;;;;;;5057086;28;20499;-48
2023/10/16 03:27:55;;;;;;;2.25;0.95;;;5.30;99.90;;;;;;5056387;28;20044;-50
2023/10/16 03:30:25;;;;;;;3.33;0.90;;;5.30;99.90;;;;;;5056254;28;20025;-50
2023/10/16 03:32:53;;;;;;;1.65;1.00;;;5.30;99.90;;;;;;5055866;28;20454;-48
2023/10/16 03:35:26;;;;;;;3.53;1.17;;;5.30;99.90;;;;;;5056132;28;20044;-47
2023/10/16 03:37:53;;;;;;;5.00;1.13;;;5.30;99.90;;;;;;5056303;28;20468;-47
2023/10/16 03:40:19;;;;;;;2.53;1.20;;;5.30;99.90;;;;;;5055828;28;20385;-48
2023/10/16 03:42:46;;;;;;;2.05;1.00;;;5.40;99.90;;;;;;5056217;28;20021;-47
2023/10/16 03:45:16;;;;;;;2.40;0.80;;;5.30;99.90;;;;;;5056282;28;20430;-48
2023/10/16 03:47:42;;;;;;;1.52;0.77;;;5.40;99.90;;;;;;5056068;28;20068;-46
2023/10/16 03:50:08;;;;;;;1.60;1.08;;;5.40;99.90;;;;;;5054810;28;20025;-47
2023/10/16 03:52:35;;;;;;;3.05;1.00;;;5.40;99.90;;;;;;5054843;28;20028;-47
2023/10/16 03:55:22;;;;;;;2.38;0.82;;;5.40;99.90;;;;;;5055773;28;20120;-48
2023/10/16 03:57:51;;;;;;;2.72;1.10;;;5.40;99.90;;;;;;5055217;28;20037;-50
2023/10/16 04:00:18;;;;;;;1.67;1.10;;;5.40;99.90;;;;;;5055637;28;20072;-46
2023/10/16 04:02:44;;;;;;;2.80;1.10;;;5.40;99.90;;;;;;5054397;28;20079;-47
2023/10/16 04:07:54;;;;;;;2.55;1.00;;;5.50;99.90;;;;;;5054623;28;20105;-46
2023/10/16 04:10:29;;;;;;;3.58;1.20;;;5.50;99.90;;;;;;5055286;28;20037;-46
2023/10/16 04:12:55;;;;;;;7.03;1.27;;;5.50;99.90;;;;;;5055289;28;20385;-47
2023/10/16 04:15:50;;;;;;;1.70;0.88;;;5.50;99.90;;;;;;5054267;28;20032;-47
2023/10/16 04:18:28;;;;;;;1.45;0.73;;;5.50;99.90;;;;;;5054843;28;20029;-48
2023/10/16 04:31:44;;;;;;;4.88;1.05;;;5.40;99.90;;;;;;5054259;28;20040;-50
2023/10/16 04:36:54;;;;;;;1.63;1.00;;;5.50;99.90;;;;;;5053881;28;20041;-50
2023/10/16 04:45:24;;;;;;;1.50;0.85;;;5.50;99.90;;;;;;5054866;28;20055;-50
2023/10/16 05:07:17;;;;;;;2.63;1.38;;;5.60;99.90;;;;;;5072615;28;20109;-50
2023/10/16 05:15:41;;;;;;;1.45;0.90;;;5.50;99.90;;;;;;5076859;28;20070;-49
2023/10/16 05:18:20;;;;;;;5.68;1.35;;;5.50;99.90;;;;;;5076729;28;20037;-50
2023/10/16 05:21:06;;;;;;;3.28;1.38;;;5.60;99.90;;;;;;5065241;28;20029;-49
2023/10/16 06:15:31;;;;;;;1.80;0.90;;;5.50;99.90;;;;;;5057572;28;20040;-50
2023/10/16 06:18:04;;;;;;;2.65;1.27;;;5.40;99.90;;;;;;5057576;28;20450;-49
2023/10/16 06:20:31;;;;;;;4.05;1.33;;;5.50;99.90;;;;;;5056993;28;20072;-49
2023/10/16 06:22:58;;;;;;;2.60;1.40;;;5.50;99.90;;;;;;5057433;28;20091;-48
2023/10/16 06:25:28;;;;;;;2.78;2.00;;;5.40;99.90;;;;;;5056930;28;20029;-49
2023/10/16 06:27:55;;;;;;;3.88;1.33;;;5.50;99.90;;;;;;5056904;28;20365;-49
2023/10/16 06:30:23;;;;;;;1.67;1.10;;;5.50;99.90;;;;;;5057459;28;20029;-49
2023/10/16 06:32:49;;;;;;;1.95;1.20;;;5.50;99.90;;;;;;5056980;28;20461;-49
2023/10/16 06:35:16;;;;;;;5.53;1.67;;;5.50;99.90;;;;;;5057288;28;20036;-47
2023/10/16 06:37:51;;;;;;;2.60;1.13;;;5.50;99.90;;;;;;5055576;28;20032;-49
2023/10/16 06:40:26;;;;;;;4.25;1.27;;;5.50;99.90;;;;;;5056189;28;20033;-49
2023/10/16 06:43:09;;;;;;;3.53;1.17;;;5.50;99.90;;;;;;5056622;28;20041;-50
2023/10/16 06:45:44;;;;;;;8.70;6.22;;;5.50;99.90;;;;;;5055847;28;20021;-50
2023/10/16 06:48:15;;;;;;;2.78;2.03;;;5.50;99.90;;;;;;5057340;28;20353;-47
2023/10/16 06:50:53;;;;;;;3.45;1.73;;;5.50;99.90;;;;;;5056590;28;20052;-49
2023/10/16 06:53:20;;;;;;;6.72;2.65;;;5.40;99.90;;;;;;5055755;28;20044;-50
2023/10/16 06:55:46;;;;;;;15.93;8.27;;;5.40;99.90;;;;;;5057177;28;20108;-49
2023/10/16 06:58:12;;;;;;;4.55;2.88;;;5.40;99.90;;;;;;5056644;28;20055;-49
2023/10/16 07:00:40;;;;;;;4.30;1.30;;;5.50;99.90;;;;;;5056467;28;20036;-51
2023/10/16 07:03:09;;;;;;;4.93;1.40;;;5.50;99.90;;;;;;5056486;28;20021;-51
2023/10/16 07:05:44;;;;;;;3.55;1.20;;;5.50;99.90;;;;;;5056289;28;20462;-51
2023/10/16 07:08:10;;;;;;;3.00;1.90;;;5.50;99.90;;;;;;5056567;28;20050;-49
2023/10/16 07:10:41;;;;;;;2.63;2.10;;;5.60;99.90;;;;;;5056354;28;20032;-50
2023/10/16 07:13:10;;;;;;;2.70;1.50;;;5.60;99.90;;;;;;5056475;28;20067;-50
2023/10/16 07:15:35;;;;;;;5.13;1.38;;;5.60;99.90;;;;;;5056398;28;20431;-51
2023/10/16 07:18:13;;;;;;;4.70;2.08;;;5.70;99.90;;;;;;5056318;28;20104;-50
2023/10/16 07:20:53;;;;;;;8.02;1.60;;;5.80;99.90;;;;;;5056327;28;20036;-48
2023/10/16 07:23:20;;;;;;;;;;;5.80;99.90;;;;;;5056930;28;20036;-51
2023/10/16 07:25:47;;;;;;;3.67;1.42;;;5.80;99.90;;;;;;5056173;28;20008;-51
2023/10/16 07:28:18;;;;;;;5.22;1.90;;;5.80;99.90;;;;;;5056152;28;20040;-49
2023/10/16 07:30:43;;;;;;;4.03;2.20;;;5.90;99.90;;;;;;5056126;28;20376;-50
2023/10/16 07:33:15;;;;;;;3.78;2.45;;;5.90;99.90;;;;;;5054815;28;20029;-49
2023/10/16 07:35:44;;;;;;;2.45;1.42;;;6.00;99.90;;;;;;5055907;28;20042;-51
2023/10/16 07:38:19;;;;;;;2.13;1.10;;;6.10;99.90;;;;;;5055828;28;20021;-49
2023/10/16 07:40:45;;;;;;;2.75;1.42;;;6.10;99.90;;;;;;5055384;28;20346;-50
2023/10/16 07:43:11;;;;;;;4.95;1.30;;;6.10;99.90;;;;;;5054133;28;20025;-46
2023/10/16 07:45:37;;;;;;;3.40;2.00;;;6.20;99.90;;;;;;5055768;28;20112;-48
2023/10/16 07:48:20;;;;;;;5.90;4.38;;;6.20;99.90;;;;;;5055445;28;20083;-48
2023/10/16 07:50:47;;;;;;;20.63;18.83;;;6.30;99.90;;;;;;5054918;28;20024;-50
2023/10/16 07:53:17;;;;;;;23.10;20.42;;;6.40;99.90;;;;;;5055040;28;20025;-51
2023/10/16 07:55:50;;;;;;;24.43;22.03;;;6.50;99.90;;;;;;5055596;28;20438;-48
2023/10/16 07:58:48;;;;;;;19.80;18.17;;;6.50;99.90;;;;;;5055241;28;20703;-46
2023/10/16 08:03:36;;;;;;;10.48;9.05;;;6.70;99.90;;;;;;5055164;28;20025;-50
2023/10/16 08:06:04;;;;;;;7.65;4.90;;;6.90;99.90;;;;;;5055021;28;20049;-55
2023/10/16 08:08:36;;;;;;;12.80;10.57;;;7.10;99.90;;;;;;5055134;28;20128;-47
2023/10/16 08:11:18;;;;;;;45.03;40.63;;;7.30;99.90;;;;;;5055037;28;20029;-48
2023/10/16 08:13:46;;;;;;;22.85;20.52;;;7.60;99.90;;;;;;5055214;28;20450;-50
2023/10/16 08:16:21;;;;;;;7.75;3.05;;;7.90;99.90;;;;;;5054350;28;20086;-53
2023/10/16 08:18:50;;;;;;;5.22;3.20;;;8.60;99.90;;;;;;5054885;28;20067;-51
2023/10/16 08:21:25;;;;;;;5.88;4.00;;;9.30;99.90;;;;;;5055098;28;20427;-51
2023/10/16 08:23:55;;;;;;;5.38;2.85;;;10.10;99.90;;;;;;5055103;28;20108;-50
2023/10/16 08:26:30;;;;;;;6.22;5.22;;;10.90;99.90;;;;;;5054646;28;20033;-51
2023/10/16 08:29:11;;;;;;;13.63;8.38;;;11.00;99.90;;;;;;5053625;28;20524;-50
2023/10/16 08:31:41;;;;;;;25.98;16.25;;;11.20;99.90;;;;;;5055737;28;20070;-51
2023/10/16 08:34:11;;;;;;;28.88;14.88;;;11.50;99.90;;;;;;5054911;28;20021;-48
2023/10/16 08:36:37;;;;;;;23.65;11.43;;;12.00;99.90;;;;;;5054507;28;20033;-50
2023/10/16 08:39:15;;;;;;;16.55;7.75;;;12.80;99.90;;;;;;5054343;28;20082;-51
2023/10/16 08:42:00;;;;;;;13.35;5.63;;;13.30;99.90;;;;;;5054922;28;20036;-50
2023/10/16 08:44:26;;;;;;;13.48;7.10;;;14.10;99.90;;;;;;5054085;28;20565;-51
2023/10/16 08:49:24;;;;;;;11.98;4.32;;;14.60;99.90;;;;;;5054480;28;20454;-48
2023/10/16 08:51:50;;;;;;;7.60;2.97;;;14.80;99.00;;;;;;5054459;28;20029;-51
2023/10/16 08:55:16;;;;;;;5.63;2.38;;;14.40;98.80;;;;;;5054120;28;20029;-51
2023/10/16 08:57:12;;;;;;;7.22;2.42;;;13.90;99.90;;;;;;5057961;28;20084;-52
2023/10/16 08:59:38;;;;;;;6.75;2.25;;;13.50;99.90;;;;;;5054532;28;20110;-50
2023/10/16 09:02:06;;;;;;;6.20;2.70;;;13.20;99.90;;;;;;5036697;28;20474;-48
2023/10/16 09:04:33;;;;;;;8.00;3.20;;;13.00;99.90;;;;;;5054166;28;20029;-50
2023/10/16 09:06:59;;;;;;;2.80;1.40;;;12.70;99.90;;;;;;5054035;28;20060;-48
2023/10/16 09:09:29;;;;;;;3.50;1.80;;;12.50;99.90;;;;;;5054134;28;20378;-48
2023/10/16 09:12:03;;;;;;;15.05;6.20;;;12.30;99.90;;;;;;5053336;28;20028;-48
2023/10/16 09:14:29;;;;;;;4.28;1.35;;;12.30;99.90;;;;;;5053183;28;20573;-50
2023/10/16 09:16:58;;;;;;;2.63;1.50;;;12.30;99.90;;;;;;5053853;28;20127;-50
2023/10/16 09:19:34;;;;;;;5.32;1.20;;;12.20;99.90;;;;;;5053843;28;20044;-49
2023/10/16 09:22:08;;;;;;;3.63;1.40;;;12.10;99.90;;;;;;5054398;28;20036;-49
2023/10/16 09:24:35;;;;;;;10.38;3.35;;;12.00;99.90;;;;;;5053760;28;20037;-48
2023/10/16 09:27:17;;;;;;;10.45;4.00;;;12.10;99.90;;;;;;5053954;28;20087;-51
2023/10/16 09:29:55;;;;;;;5.20;1.70;;;12.10;99.90;;;;;;5039231;28;20350;-51
2023/10/16 09:32:25;;;;;;;2.88;1.15;;;12.00;99.90;;;;;;5053965;28;20119;-51
2023/10/16 09:34:57;;;;;;;5.15;1.20;;;11.90;99.90;;;;;;5054148;28;20025;-49
2023/10/16 09:37:34;;;;;;;5.68;2.58;;;11.90;99.90;;;;;;5053700;28;20071;-49
2023/10/16 09:43:05;;;;;;;123.43;66.07;;;11.80;99.90;;;;;;5054245;28;20080;-48
2023/10/16 09:45:37;;;;;;;13.52;6.63;;;11.80;99.90;;;;;;5053977;28;20025;-48
2023/10/16 09:48:19;;;;;;;6.82;2.40;;;12.00;99.90;;;;;;5053891;28;20040;-48
2023/10/16 09:50:45;;;;;;;4.63;1.90;;;12.10;99.90;;;;;;5053626;28;20040;-51
2023/10/16 09:53:11;;;;;;;3.17;1.98;;;12.20;99.90;;;;;;5053817;28;20423;-47
2023/10/16 09:55:44;;;;;;;5.00;3.13;;;12.30;99.90;;;;;;5053811;28;20044;-48
2023/10/16 09:58:10;;;;;;;5.30;2.30;;;12.40;99.90;;;;;;5057750;28;20033;-50
2023/10/16 10:00:38;;;;;;;4.65;2.63;;;12.40;99.90;;;;;;5057447;28;20080;-49
2023/10/16 10:03:11;;;;;;;6.82;2.60;;;12.50;99.90;;;;;;5056536;28;20021;-48
2023/10/16 10:06:08;;;;;;;4.70;2.25;;;12.50;99.90;;;;;;5056010;28;20055;-51
2023/10/16 10:09:20;;;;;;;4.40;2.20;;;12.70;99.90;;;;;;5056494;28;20033;-50
2023/10/16 10:11:44;;;;;;;6.30;3.50;;;13.20;99.90;;;;;;5043717;28;20111;-51
2023/10/16 10:14:26;;;;;;;5.60;2.85;;;13.50;99.90;;;;;;5040507;28;20110;-49
2023/10/16 10:16:59;;;;;;;4.30;1.98;;;14.10;98.90;;;;;;5056585;28;20091;-51
2023/10/16 10:19:32;;;;;;;4.15;1.83;;;15.90;95.70;;;;;;5056170;28;20031;-51
2023/10/16 10:22:05;;;;;;;7.25;4.63;;;17.20;87.90;;;;;;5055959;28;20035;-49
2023/10/16 10:24:45;;;;;;;4.35;2.60;;;17.40;75.40;;;;;;5057164;28;20048;-50
2023/10/16 10:27:11;;;;;;;5.38;3.60;;;18.00;72.10;;;;;;5057076;28;20082;-48
2023/10/16 10:29:42;;;;;;;11.95;10.85;;;18.30;64.70;;;;;;5056766;28;20037;-51
2023/10/16 10:32:10;;;;;;;5.25;3.63;;;18.50;59.50;;;;;;5056575;28;20021;-52
2023/10/16 10:34:36;;;;;;;6.68;2.60;;;18.50;58.60;;;;;;5056708;28;20079;-50
2023/10/16 10:37:07;;;;;;;2.88;1.50;;;18.90;57.20;;;;;;5055583;28;20454;-49
2023/10/16 10:39:38;;;;;;;6.43;2.63;;;19.20;51.90;;;;;;5055467;28;20021;-52
2023/10/16 10:42:04;;;;;;;3.70;1.40;;;19.20;47.30;;;;;;5056712;28;20125;-53
2023/10/16 10:45:18;;;;;;;6.05;5.45;;;19.10;48.60;;;;;;5056344;28;20114;-49
2023/10/16 10:47:43;;;;;;;4.93;1.70;;;19.80;45.10;;;;;;5056278;28;20071;-52
2023/10/16 10:50:18;;;;;;;3.90;1.60;;;20.00;42.80;;;;;;5056488;28;20032;-51
2023/10/16 10:52:44;;;;;;;15.30;7.53;;;20.40;38.20;;;;;;5056337;28;20121;-52
2023/10/16 10:55:21;;;;;;;2.97;1.63;;;20.30;37.40;;;;;;5056016;28;20493;-53
2023/10/16 10:58:11;;;;;;;3.65;1.73;;;19.90;37.30;;;;;;5056433;28;20029;-52
2023/10/16 11:00:43;;;;;;;3.17;1.60;;;20.70;34.50;;;;;;5041820;28;20350;-53
2023/10/16 11:03:10;;;;;;;2.35;1.10;;;21.20;29.80;;;;;;5056468;28;20044;-51
2023/10/16 11:05:40;;;;;;;2.72;1.13;;;20.40;30.30;;;;;;5054933;28;20069;-53
2023/10/16 11:10:50;;;;;;;3.58;1.70;;;19.80;31.10;;;;;;5039582;28;20112;-50
2023/10/16 11:13:17;;;;;;;2.80;1.40;;;20.00;29.50;;;;;;5023262;28;20103;-51
2023/10/16 11:15:52;;;;;;;2.10;1.13;;;20.40;29.10;;;;;;5055840;28;20059;-52
2023/10/16 11:18:19;;;;;;;3.20;1.40;;;20.50;26.80;;;;;;5038481;28;20045;-49
2023/10/16 11:20:46;;;;;;;2.55;0.90;;;21.10;26.40;;;;;;5055367;28;20115;-51
2023/10/16 11:23:12;;;;;;;1.77;0.73;;;20.70;27.30;;;;;;5056178;28;20036;-52
2023/10/16 11:25:44;;;;;;;1.33;0.70;;;20.80;26.70;;;;;;5056075;28;20017;-52
2023/10/16 11:28:20;;;;;;;1.27;0.70;;;20.40;28.30;;;;;;5055807;28;20479;-52
2023/10/16 11:30:49;;;;;;;3.53;1.33;;;19.70;25.90;;;;;;5055487;28;20029;-51
2023/10/16 11:33:44;;;;;;;;;;;19.40;27.80;;;;;;5055850;28;20029;-51
2023/10/16 11:36:13;;;;;;;7.60;3.05;;;20.00;27.50;;;;;;5054817;28;19928;-52
2023/10/16 11:38:39;;;;;;;4.17;1.63;;;21.30;24.80;;;;;;5055501;28;20116;-52
2023/10/16 11:41:11;;;;;;;3.13;0.90;;;22.80;22.20;;;;;;5055603;28;20638;-51
2023/10/16 11:43:40;;;;;;;1.73;0.70;;;22.10;21.50;;;;;;5055474;28;20081;-51
2023/10/16 11:46:27;;;;;;;3.47;1.10;;;21.00;23.60;;;;;;5055334;28;20202;-52
2023/10/16 11:48:56;;;;;;;2.67;1.15;;;20.10;23.10;;;;;;5055216;28;20433;-52
2023/10/16 11:51:25;;;;;;;;;;;20.30;25.00;;;;;;5055983;28;20146;-52
2023/10/16 11:53:56;;;;;;;2.38;1.08;;;20.50;23.40;;;;;;5055428;28;19913;-51
2023/10/16 11:56:22;;;;;;;1.80;0.80;;;20.40;23.30;;;;;;5054354;28;20112;-52
2023/10/16 11:58:48;;;;;;;70.32;30.65;;;19.30;23.00;;;;;;5055334;28;20463;-52
2023/10/16 12:01:14;;;;;;;3.85;1.40;;;18.50;23.80;;;;;;5055355;28;20430;-51
2023/10/16 12:03:40;;;;;;;8.50;3.75;;;17.80;25.50;;;;;;5055173;28;20068;-51
2023/10/16 12:06:12;;;;;;;21.85;8.15;;;17.80;26.50;;;;;;5053866;28;20478;-51
2023/10/16 12:08:40;;;;;;;6.03;2.10;;;18.10;26.20;;;;;;5053807;28;20042;-52
2023/10/16 12:11:07;;;;;;;3.03;1.00;;;18.80;25.00;;;;;;5055386;28;20462;-50
2023/10/16 12:13:32;;;;;;;12.13;4.55;;;18.90;24.20;;;;;;5054973;28;20343;-51
2023/10/16 12:15:58;;;;;;;15.90;4.72;;;18.90;25.40;;;;;;5055387;28;20115;-50
2023/10/16 12:18:28;;;;;;;44.13;14.85;;;18.30;25.60;;;;;;5054373;28;20039;-50
2023/10/16 12:20:57;;;;;;;47.20;16.80;;;18.30;27.00;;;;;;5054696;28;20041;-51
2023/10/16 12:23:23;;;;;;;18.17;5.57;;;18.30;26.70;;;;;;5054876;28;20350;-51
2023/10/16 12:25:49;;;;;;;3.67;1.33;;;18.30;27.40;;;;;;5054528;28;20036;-51
2023/10/16 12:28:15;;;;;;;3.92;2.05;;;18.00;26.30;;;;;;5052995;28;20029;-51
2023/10/16 12:30:40;;;;;;;3.60;2.13;;;18.20;25.20;;;;;;5054491;28;20021;-51
2023/10/16 12:33:07;;;;;;;3.00;1.05;;;18.10;26.30;;;;;;5054731;28;20025;-51
2023/10/16 12:35:34;;;;;;;4.93;1.73;;;17.90;26.70;;;;;;5054771;28;20021;-53
2023/10/16 12:38:04;;;;;;;2.63;1.27;;;18.40;25.60;;;;;;5054537;28;20021;-50
2023/10/16 12:40:39;;;;;;;1.73;1.08;;;18.70;25.30;;;;;;5054580;28;20025;-49
2023/10/16 12:43:08;;;;;;;3.72;1.00;;;18.80;25.60;;;;;;5054646;28;20029;-49
2023/10/16 12:45:34;;;;;;;2.10;0.93;;;19.50;24.90;;;;;;5053180;28;20041;-51
2023/10/16 12:47:59;;;;;;;2.35;1.27;;;19.90;24.20;;;;;;5054491;28;20316;-51
2023/10/16 12:50:25;;;;;;;3.53;1.40;;;18.90;25.20;;;;;;5054529;28;20037;-50
2023/10/16 12:52:51;;;;;;;3.60;2.10;;;19.20;26.20;;;;;;5054256;28;20104;-51
2023/10/16 12:55:19;;;;;;;2.95;2.10;;;20.30;23.30;;;;;;5054306;28;20083;-52
2023/10/16 12:57:45;;;;;;;2.35;1.27;;;21.20;22.20;;;;;;5052972;28;20103;-54
2023/10/16 13:00:16;;;;;;;2.30;0.90;;;21.90;20.90;;;;;;5053905;28;20029;-51
2023/10/16 13:02:45;;;;;;;2.58;0.90;;;21.50;21.00;;;;;;5053471;28;20422;-52
2023/10/16 13:05:15;;;;;;;2.03;0.90;;;20.80;21.40;;;;;;5054039;28;20032;-51
2023/10/16 13:07:44;;;;;;;2.88;1.17;;;20.50;21.00;;;;;;5054369;28;20323;-52
2023/10/16 13:10:14;;;;;;;2.58;1.00;;;20.70;21.40;;;;;;5054541;28;20450;-53
2023/10/16 13:12:43;;;;;;;2.17;0.90;;;21.90;19.10;;;;;;5053214;28;20032;-52
2023/10/16 13:15:15;;;;;;;4.05;1.38;;;21.70;19.00;;;;;;5053933;28;20060;-53
2023/10/16 13:17:41;;;;;;;2.28;1.20;;;20.00;21.60;;;;;;5053981;28;20040;-52
2023/10/16 13:20:17;;;;;;;2.47;1.55;;;18.10;24.80;;;;;;5054189;28;20033;-53
2023/10/16 13:22:49;;;;;;;2.70;0.90;;;17.50;26.30;;;;;;5054053;28;20025;-52
2023/10/16 13:25:19;;;;;;;2.67;0.90;;;17.20;28.00;;;;;;5053525;28;20331;-52
2023/10/16 13:27:44;;;;;;;4.32;1.40;;;17.10;27.50;;;;;;5054299;28;20060;-52
2023/10/16 13:30:16;;;;;;;2.13;0.80;;;16.80;29.10;;;;;;5054677;28;20095;-48
2023/10/16 13:32:42;;;;;;;1.00;0.77;;;16.50;28.30;;;;;;5056740;28;20033;-49
2023/10/16 13:35:15;;;;;;;2.13;1.50;;;16.40;28.90;;;;;;5057965;28;20352;-51
2023/10/16 13:37:44;;;;;;;1.80;0.60;;;16.30;30.00;;;;;;5057978;28;20083;-51
2023/10/16 13:40:20;;;;;;;1.15;0.95;;;16.10;30.40;;;;;;5056872;28;20063;-48
2023/10/16 13:42:55;;;;;;;3.88;1.48;;;16.10;30.80;;;;;;5057601;28;20055;-50
2023/10/16 13:45:21;;;;;;;2.58;0.90;;;16.80;28.90;;;;;;5056692;28;20083;-52
2023/10/16 13:47:49;;;;;;;2.22;0.82;;;18.20;26.70;;;;;;5056682;28;20041;-52
2023/10/16 13:50:16;;;;;;;3.42;1.27;;;20.10;23.60;;;;;;5057851;28;20033;-51
2023/10/16 13:52:46;;;;;;;0.93;0.70;;;21.40;21.40;;;;;;5056498;28;20124;-51
2023/10/16 13:55:14;;;;;;;3.70;1.20;;;22.00;19.60;;;;;;5056630;28;20032;-51
2023/10/16 13:57:44;;;;;;;1.40;0.80;;;20.90;20.90;;;;;;5057821;28;20390;-53
2023/10/16 14:00:28;;;;;;;4.35;2.13;;;20.70;21.80;;;;;;5057711;28;20485;-52
2023/10/16 14:02:57;;;;;;;1.52;0.70;;;21.80;21.60;;;;;;5056302;28;20369;-53
2023/10/16 14:05:23;;;;;;;2.47;1.42;;;22.30;19.00;;;;;;5056054;28;20086;-52
2023/10/16 14:07:49;;;;;;;1.30;0.90;;;21.40;19.70;;;;;;5039936;28;20033;-52
2023/10/16 14:10:15;;;;;;;3.40;1.10;;;21.40;19.90;;;;;;5057601;28;20036;-51
2023/10/16 14:12:41;;;;;;;3.95;1.30;;;22.00;19.30;;;;;;5057599;28;20051;-49
2023/10/16 14:15:15;;;;;;;1.50;0.90;;;22.00;20.00;;;;;;5057050;28;20029;-52
2023/10/16 14:17:44;;;;;;;2.45;1.17;;;22.00;19.60;;;;;;5057058;28;20056;-53
2023/10/16 14:20:34;;;;;;;3.40;1.30;;;21.20;20.60;;;;;;5057745;28;20421;-52
2023/10/16 14:22:59;;;;;;;3.30;1.83;;;21.20;21.10;;;;;;5057075;28;20021;-52
2023/10/16 14:25:32;;;;;;;3.95;1.38;;;20.90;20.70;;;;;;5056920;28;20036;-53
2023/10/16 14:28:04;;;;;;;3.05;0.95;;;20.80;21.50;;;;;;5056105;28;20112;-53
2023/10/16 14:30:33;;;;;;;1.77;0.82;;;21.60;19.90;;;;;;5057309;28;20048;-53
2023/10/16 14:32:58;;;;;;;1.47;0.83;;;22.10;19.00;;;;;;5057165;28;20020;-52
2023/10/16 14:35:27;;;;;;;2.88;1.00;;;20.70;20.40;;;;;;5056404;28;20094;-53
2023/10/16 14:37:52;;;;;;;2.45;0.95;;;20.60;20.40;;;;;;5056858;28;20039;-52
2023/10/16 14:40:19;;;;;;;5.93;2.60;;;20.80;20.10;;;;;;5056642;28;20029;-52
2023/10/16 14:42:44;;;;;;;3.85;2.22;;;21.70;18.30;;;;;;5055889;28;20033;-53
2023/10/16 14:45:10;;;;;;;6.32;3.05;;;22.50;17.80;;;;;;5056821;28;20033;-51
2023/10/16 14:47:36;;;;;;;1.83;1.02;;;22.70;18.00;;;;;;5056785;28;20116;-51
2023/10/16 14:50:03;;;;;;;2.33;1.50;;;23.20;17.50;;;;;;5056146;28;20025;-53
2023/10/16 14:52:30;;;;;;;4.47;1.20;;;22.70;17.00;;;;;;5056014;28;20041;-52
2023/10/16 14:54:55;;;;;;;3.35;1.20;;;21.60;17.70;;;;;;5056179;28;20033;-52
2023/10/16 14:57:24;;;;;;;3.60;1.20;;;21.20;19.20;;;;;;5056478;28;20047;-53
2023/10/16 14:59:49;;;;;;;1.13;0.70;;;21.40;18.20;;;;;;5056779;28;20025;-50
2023/10/16 15:02:15;;;;;;;1.75;0.95;;;21.00;17.50;;;;;;5054907;28;20108;-53